Time;durP1;ratioP1;P1;durP2;ratioP2;P2;SDS_P1;SDS_P2;PMS_P1;PMS_P2;Temp;Humidity;BMP_temperature;BMP_pressure;BME280_temperature;BME280_humidity;BME280_pressure;Samples;Min_cycle;Max_cycle;Signal;HPM_P1;HPM_P2
2023/07/08 00:00:23;;;;;;;15.93;12.38;;;;;;;18.97;100.00;64970.66;5031872;28;20174;-57
2023/07/08 00:02:49;;;;;;;17.15;12.90;;;;;;;18.92;100.00;64962.59;5031757;28;20237;-60
2023/07/08 00:05:18;;;;;;;16.55;12.57;;;;;;;18.88;100.00;64961.28;5031806;28;20588;-56
2023/07/08 00:07:44;;;;;;;15.30;12.75;;;;;;;18.91;100.00;64966.59;5031680;28;20255;-57
2023/07/08 00:10:14;;;;;;;15.63;12.68;;;;;;;18.87;100.00;64962.72;5031534;28;20251;-60
2023/07/08 00:12:40;;;;;;;15.85;13.13;;;;;;;18.86;100.00;64955.97;5031444;28;20245;-59
2023/07/08 00:15:06;;;;;;;16.80;13.50;;;;;;;18.87;100.00;64959.63;5031294;28;20194;-60
2023/07/08 00:17:32;;;;;;;16.15;13.75;;;;;;;18.85;100.00;64959.97;5031312;28;20683;-59
2023/07/08 00:19:57;;;;;;;16.38;14.02;;;;;;;18.80;100.00;64955.00;5031259;28;20742;-59
2023/07/08 00:22:24;;;;;;;15.93;13.75;;;;;;;18.79;100.00;64950.78;5031525;28;20700;-55
2023/07/08 00:24:50;;;;;;;17.27;13.75;;;;;;;18.65;100.00;64935.91;5030916;28;20640;-56
2023/07/08 00:27:16;;;;;;;16.60;14.25;;;;;;;18.73;100.00;64946.72;5030243;28;20232;-58
2023/07/08 00:29:43;;;;;;;14.85;13.25;;;;;;;18.70;100.00;64940.88;5031136;28;20201;-60
2023/07/08 00:32:15;;;;;;;20.35;14.07;;;;;;;18.67;100.00;64935.00;5029689;28;20236;-57
2023/07/08 00:34:41;;;;;;;15.52;13.88;;;;;;;18.72;100.00;64943.06;5013500;28;20201;-56
2023/07/08 00:37:13;;;;;;;18.75;13.68;;;;;;;18.62;100.00;64930.03;5031334;28;20206;-56
2023/07/08 00:39:40;;;;;;;17.83;13.38;;;;;;;18.67;100.00;64938.09;5031042;28;20206;-56
2023/07/08 00:42:21;;;;;;;17.73;13.55;;;;;;;18.70;100.00;64941.44;5031406;28;20572;-57
2023/07/08 00:44:48;;;;;;;15.43;13.18;;;;;;;18.63;100.00;64933.13;5031132;28;20267;-60
2023/07/08 00:47:15;;;;;;;13.88;12.43;;;;;;;18.66;100.00;64939.00;5030753;28;20194;-59
2023/07/08 00:49:49;;;;;;;16.15;13.48;;;;;;;18.62;100.00;64934.59;5030887;28;20271;-60
2023/07/08 00:52:21;;;;;;;16.42;13.55;;;;;;;18.58;100.00;64930.19;5030679;28;20226;-59
2023/07/08 00:54:50;;;;;;;15.20;13.48;;;;;;;18.62;100.00;64935.16;5030976;28;20202;-57
2023/07/08 00:57:16;;;;;;;15.52;13.63;;;;;;;18.62;100.00;64932.03;5031016;28;20557;-57
2023/07/08 00:59:47;;;;;;;17.55;13.50;;;;;;;18.59;100.00;64928.72;5030821;28;20229;-58
2023/07/08 01:02:16;;;;;;;15.25;13.23;;;;;;;18.63;100.00;64933.13;5030955;28;20214;-57
2023/07/08 01:04:54;;;;;;;16.10;12.60;;;;;;;18.59;100.00;64928.72;5029916;28;20194;-57
2023/07/08 01:07:23;;;;;;;17.10;12.43;;;;;;;18.54;100.00;64926.34;5030871;28;20244;-59
2023/07/08 01:09:55;;;;;;;15.07;12.95;;;;;;;18.51;100.00;64922.44;5030668;28;20583;-61
2023/07/08 01:12:29;;;;;;;17.63;12.63;;;;;;;18.49;100.00;64918.25;5030884;28;20232;-57
2023/07/08 01:14:56;;;;;;;15.38;12.82;;;;;;;18.46;100.00;64914.94;5030898;28;20683;-56
2023/07/08 01:17:22;;;;;;;17.23;13.15;;;;;;;18.44;100.00;64912.75;5030885;28;20288;-58
2023/07/08 01:19:49;;;;;;;14.13;12.73;;;;;;;18.43;100.00;64912.19;5030625;28;20202;-58
2023/07/08 01:22:14;;;;;;;14.32;12.27;;;;;;;18.46;100.00;64914.94;5030405;28;20209;-57
2023/07/08 01:24:43;;;;;;;15.63;12.60;;;;;;;18.48;100.00;64916.59;5030533;28;20206;-57
2023/07/08 01:27:13;;;;;;;14.80;12.45;;;;;;;18.44;100.00;64910.72;5031311;28;20617;-57
2023/07/08 01:29:39;;;;;;;13.70;12.07;;;;;;;18.44;100.00;64913.28;5030790;28;20268;-60
2023/07/08 01:32:05;;;;;;;16.75;11.43;;;;;;;18.35;100.00;64903.34;5031186;28;20225;-56
2023/07/08 01:34:39;;;;;;;13.38;11.98;;;;;;;18.34;100.00;64901.69;5030667;28;20206;-57
2023/07/08 01:37:06;;;;;;;19.70;11.98;;;;;;;18.36;100.00;64901.34;5031597;28;20613;-56
2023/07/08 01:39:32;;;;;;;15.90;11.70;;;;;;;18.38;100.00;64906.66;5034592;28;20218;-60
2023/07/08 01:41:58;;;;;;;15.23;12.52;;;;;;;18.37;100.00;64907.53;5034319;28;20202;-58
2023/07/08 01:44:28;;;;;;;15.18;11.68;;;;;;;18.32;100.00;64899.50;5033757;28;20210;-60
2023/07/08 01:46:57;;;;;;;15.25;12.43;;;;;;;18.26;100.00;64893.41;5033515;28;20198;-60
2023/07/08 01:49:23;;;;;;;15.07;11.65;;;;;;;18.32;100.00;64896.94;5033653;28;20731;-60
2023/07/08 01:51:49;;;;;;;15.68;11.85;;;;;;;18.29;100.00;64896.72;5033626;28;20198;-60
2023/07/08 01:54:15;;;;;;;16.23;12.80;;;;;;;18.26;100.00;64895.97;5033324;28;20245;-57
2023/07/08 01:56:40;;;;;;;13.82;12.40;;;;;;;18.29;100.00;64894.19;5034177;28;20241;-62
2023/07/08 01:59:05;;;;;;;13.70;12.30;;;;;;;18.23;100.00;64889.56;5033453;28;20301;-60
2023/07/08 02:01:31;;;;;;;14.70;12.23;;;;;;;18.21;100.00;64887.34;5034451;28;20190;-60
2023/07/08 02:03:56;;;;;;;16.00;11.70;;;;;;;18.23;100.00;64890.13;5033452;28;20214;-62
2023/07/08 02:06:22;;;;;;;14.13;12.18;;;;;;;18.23;100.00;64892.66;5033422;28;20698;-56
2023/07/08 02:08:47;;;;;;;13.27;11.20;;;;;;;18.27;100.00;64891.97;5033689;28;20241;-58
2023/07/08 02:11:12;;;;;;;13.70;11.77;;;;;;;18.27;100.00;64894.53;5033494;28;20174;-57
2023/07/08 02:13:38;;;;;;;13.25;11.85;;;;;;;18.24;100.00;64891.19;5033431;28;20230;-56
2023/07/08 02:16:06;;;;;;;13.43;11.27;;;;;;;18.23;100.00;64887.56;5015559;28;20202;-60
2023/07/08 02:18:32;;;;;;;13.90;11.60;;;;;;;18.23;100.00;64889.56;5015705;28;20283;-57
2023/07/08 02:20:58;;;;;;;17.55;11.80;;;;;;;18.17;100.00;64886.03;5033270;28;20198;-58
2023/07/08 02:23:24;;;;;;;12.45;10.07;;;;;;;18.20;100.00;64886.78;5033156;28;20210;-57
2023/07/08 02:25:54;;;;;;;12.73;11.20;;;;;;;18.18;100.00;64882.03;5033166;28;20186;-57
2023/07/08 02:28:20;;;;;;;12.68;11.35;;;;;;;18.13;100.00;64879.09;5033294;28;20221;-57
2023/07/08 02:30:48;;;;;;;13.50;11.35;;;;;;;18.13;100.00;64881.06;5033197;28;20198;-61
2023/07/08 02:33:17;;;;;;;12.25;10.95;;;;;;;18.14;100.00;64879.66;5033152;28;20232;-59
2023/07/08 02:35:43;;;;;;;15.30;10.95;;;;;;;18.08;100.00;64873.56;5033013;28;20257;-60
2023/07/08 02:38:09;;;;;;;13.13;10.55;;;;;;;18.12;100.00;64877.97;5033214;28;20699;-62
2023/07/08 02:40:34;;;;;;;14.68;11.07;;;;;;;18.11;100.00;64876.88;5032968;28;20205;-61
2023/07/08 02:42:59;;;;;;;16.45;11.85;;;;;;;18.10;100.00;64878.31;5032960;28;20662;-61
2023/07/08 02:45:25;;;;;;;13.95;11.18;;;;;;;18.11;100.00;64876.31;5033083;28;20237;-61
2023/07/08 02:47:50;;;;;;;11.93;10.73;;;;;;;18.09;100.00;64874.13;5032496;28;20221;-61
2023/07/08 02:50:17;;;;;;;13.25;10.65;;;;;;;18.06;100.00;64868.28;5031859;28;20232;-57
2023/07/08 02:52:42;;;;;;;15.82;11.52;;;;;;;18.06;100.00;64871.34;5032928;28;20288;-58
2023/07/08 02:55:08;;;;;;;17.55;11.70;;;;;;;18.01;100.00;64865.28;5032801;28;20619;-58
2023/07/08 02:57:33;;;;;;;14.45;11.18;;;;;;;18.06;100.00;64873.38;5032806;28;20332;-57
2023/07/08 02:59:59;;;;;;;19.48;11.57;;;;;;;18.03;100.00;64868.06;5032699;28;20208;-61
2023/07/08 03:02:26;;;;;;;12.80;11.50;;;;;;;18.06;100.00;64868.28;5032696;28;20297;-56
2023/07/08 03:04:54;;;;;;;15.82;11.95;;;;;;;18.08;100.00;64870.47;5032353;28;20182;-61
2023/07/08 03:07:19;;;;;;;13.23;11.30;;;;;;;18.07;100.00;64869.91;5013393;28;20209;-56
2023/07/08 03:09:45;;;;;;;12.02;10.85;;;;;;;18.13;100.00;64876.53;5031663;28;20260;-58
2023/07/08 03:12:11;;;;;;;13.85;11.20;;;;;;;18.13;100.00;64881.06;5032368;28;20644;-59
2023/07/08 03:14:37;;;;;;;17.73;11.20;;;;;;;18.16;100.00;64882.38;5032520;28;20202;-60
2023/07/08 03:17:03;;;;;;;13.35;11.35;;;;;;;18.16;100.00;64882.38;5032580;28;20582;-60
2023/07/08 03:19:28;;;;;;;12.98;11.68;;;;;;;18.16;100.00;64882.38;5032420;28;20703;-57
2023/07/08 03:21:54;;;;;;;16.55;11.02;;;;;;;18.14;100.00;64882.19;5032554;28;20194;-57
2023/07/08 03:24:20;;;;;;;13.48;10.57;;;;;;;18.14;100.00;64882.72;5032350;28;20210;-58
2023/07/08 03:26:46;;;;;;;12.02;9.90;;;;;;;18.16;100.00;64884.41;5032114;28;20198;-57
2023/07/08 03:29:16;;;;;;;14.35;10.70;;;;;;;18.18;100.00;64884.59;5032345;28;20214;-59
2023/07/08 03:31:42;;;;;;;11.40;10.20;;;;;;;18.18;100.00;64884.59;5032012;28;20278;-57
2023/07/08 03:34:10;;;;;;;11.13;9.90;;;;;;;18.16;100.00;64879.84;5031871;28;20387;-57
2023/07/08 03:36:48;;;;;;;12.60;10.00;;;;;;;18.10;100.00;64875.75;5032010;28;20582;-62
2023/07/08 03:39:14;;;;;;;11.43;9.82;;;;;;;18.11;100.00;64876.31;5032011;28;20210;-62
2023/07/08 03:41:39;;;;;;;10.55;8.82;;;;;;;18.07;100.00;64871.91;5031848;28;20190;-60
2023/07/08 03:44:04;;;;;;;12.52;10.07;;;;;;;18.11;100.00;64876.88;5068528;22;20654;-59
2023/07/08 03:46:30;;;;;;;9.90;8.90;;;;;;;17.94;100.00;64853.03;5071760;28;20555;-61
2023/07/08 03:48:55;;;;;;;10.57;8.82;;;;;;;18.12;100.00;64877.97;5057056;28;20217;-59
2023/07/08 03:51:33;;;;;;;9.77;8.77;;;;;;;18.14;100.00;64880.19;5051705;28;20228;-59
2023/07/08 03:53:59;;;;;;;12.95;8.25;;;;;;;18.12;100.00;64880.00;5051873;28;20225;-56
2023/07/08 03:56:25;;;;;;;16.00;8.88;;;;;;;18.08;100.00;64871.00;5051789;28;20200;-59
2023/07/08 03:58:51;;;;;;;11.65;9.38;;;;;;;18.11;100.00;64876.31;5052112;28;20201;-64
2023/07/08 04:01:18;;;;;;;9.85;8.20;;;;;;;18.21;100.00;64890.47;5051292;28;20327;-58
2023/07/08 04:03:44;;;;;;;10.50;8.30;;;;;;;18.09;100.00;64872.13;5051793;28;20296;-57
2023/07/08 04:06:10;;;;;;;11.60;8.75;;;;;;;18.15;100.00;64880.72;5051753;28;20186;-60
2023/07/08 04:08:35;;;;;;;13.05;8.50;;;;;;;18.14;100.00;64879.66;5051390;28;20212;-61
2023/07/08 04:11:01;;;;;;;9.88;8.75;;;;;;;18.17;100.00;64883.50;5051500;28;20601;-58
2023/07/08 04:13:26;;;;;;;9.07;8.18;;;;;;;18.11;100.00;64876.88;5051324;28;20229;-57
2023/07/08 04:15:57;;;;;;;10.02;7.85;;;;;;;18.10;100.00;64875.75;5051363;28;20264;-60
2023/07/08 04:18:22;;;;;;;9.18;7.63;;;;;;;18.14;100.00;64882.72;5051648;28;20252;-62
2023/07/08 04:20:52;;;;;;;11.70;8.40;;;;;;;18.21;100.00;64884.81;5051401;28;20786;-61
2023/07/08 04:23:21;;;;;;;8.23;7.38;;;;;;;18.18;100.00;64886.59;5051020;28;20275;-61
2023/07/08 04:25:48;;;;;;;8.82;7.13;;;;;;;18.16;100.00;64882.38;5051157;28;20197;-61
2023/07/08 04:28:14;;;;;;;9.40;8.20;;;;;;;18.18;100.00;64884.59;5051439;28;20292;-57
2023/07/08 04:30:41;;;;;;;9.70;7.65;;;;;;;18.19;100.00;64885.69;5051285;28;20293;-57
2023/07/08 04:33:16;;;;;;;9.00;7.82;;;;;;;18.21;100.00;64889.91;5051121;28;20213;-57
2023/07/08 04:35:43;;;;;;;9.25;7.63;;;;;;;18.32;100.00;64897.47;5033495;28;20274;-58
2023/07/08 04:38:21;;;;;;;11.48;8.63;;;;;;;18.30;100.00;64900.38;5033003;28;20281;-59
2023/07/08 04:40:47;;;;;;;10.63;8.10;;;;;;;18.31;100.00;64901.50;5051089;28;20196;-57
2023/07/08 04:43:12;;;;;;;11.27;8.43;;;;;;;18.38;100.00;64906.09;5051371;28;20209;-57
2023/07/08 04:45:44;;;;;;;9.32;8.25;;;;;;;18.55;100.00;64924.31;5050872;28;20642;-57
2023/07/08 04:48:14;;;;;;;10.15;8.23;;;;;;;18.67;100.00;64935.56;5050698;28;20667;-57
2023/07/08 04:50:44;;;;;;;10.10;7.75;;;;;;;18.62;100.00;64934.59;5050755;28;20201;-56
2023/07/08 04:53:10;;;;;;;12.57;8.20;;;;;;;18.59;100.00;64926.16;5050874;28;20209;-57
2023/07/08 04:55:39;;;;;;;12.32;8.25;;;;;;;18.58;100.00;64927.63;5050818;28;20736;-59
2023/07/08 04:58:04;;;;;;;9.75;8.35;;;;;;;18.55;100.00;64924.88;5050769;28;20336;-60
2023/07/08 05:00:30;;;;;;;8.90;7.95;;;;;;;18.51;100.00;64919.91;5051086;28;20602;-60
2023/07/08 05:02:55;;;;;;;12.63;7.85;;;;;;;18.45;100.00;64911.28;5051073;28;20813;-60
2023/07/08 05:05:21;;;;;;;10.10;9.05;;;;;;;18.41;100.00;64907.41;5050936;28;20193;-60
2023/07/08 05:07:49;;;;;;;11.73;8.48;;;;;;;18.51;100.00;64917.34;5050567;28;20201;-61
2023/07/08 05:10:15;;;;;;;12.68;8.50;;;;;;;18.66;100.00;64936.47;5050600;28;20201;-61
2023/07/08 05:12:42;;;;;;;9.00;7.80;;;;;;;18.63;100.00;64931.13;5052100;28;20209;-64
2023/07/08 05:15:08;;;;;;;12.05;8.82;;;;;;;18.56;100.00;64925.44;5054034;28;20199;-60
2023/07/08 05:17:34;;;;;;;11.70;8.45;;;;;;;18.60;100.00;64930.41;5053909;28;20242;-60
2023/07/08 05:20:00;;;;;;;10.25;8.40;;;;;;;18.71;100.00;64942.53;5054211;28;20265;-60
2023/07/08 05:22:27;;;;;;;11.23;8.35;;;;;;;18.74;100.00;64943.28;5053935;28;20209;-61
2023/07/08 05:24:55;;;;;;;9.25;8.32;;;;;;;18.72;100.00;64943.63;5054039;28;20197;-59
2023/07/08 05:27:28;;;;;;;10.60;7.88;;;;;;;18.78;100.00;64949.69;5053873;28;20288;-59
2023/07/08 05:29:53;;;;;;;11.13;8.88;;;;;;;18.88;100.00;64963.28;5053668;28;20240;-60
2023/07/08 05:32:19;;;;;;;10.75;9.50;;;;;;;18.86;100.00;64959.09;5035841;28;20245;-60
2023/07/08 05:34:45;;;;;;;11.65;8.70;;;;;;;18.85;100.00;64957.41;5053494;28;20600;-60
2023/07/08 05:37:12;;;;;;;9.10;8.20;;;;;;;18.90;100.00;64966.06;5053693;28;20697;-61
2023/07/08 05:39:38;;;;;;;9.32;7.50;;;;;;;18.91;100.00;64967.13;5053428;28;20197;-60
2023/07/08 05:42:04;;;;;;;8.90;7.85;;;;;;;18.93;100.00;64966.25;5035552;28;20197;-60
2023/07/08 05:44:30;;;;;;;9.57;7.22;;;;;;;18.99;100.00;64970.84;5053511;28;20260;-61
2023/07/08 05:46:55;;;;;;;10.95;8.32;;;;;;;19.04;100.00;64975.84;5053751;28;20213;-61
2023/07/08 05:49:21;;;;;;;10.80;6.82;;;;;;;19.08;100.00;64982.81;5053457;28;20210;-62
2023/07/08 05:51:47;;;;;;;10.85;7.40;;;;;;;19.19;100.00;64997.50;5053443;28;20577;-61
2023/07/08 05:54:13;;;;;;;9.40;8.30;;;;;;;19.24;100.00;65001.00;5053275;28;20217;-62
2023/07/08 05:56:39;;;;;;;8.38;7.47;;;;;;;19.28;100.00;65005.44;5053209;28;20696;-59
2023/07/08 05:59:05;;;;;;;10.45;8.25;;;;;;;19.42;100.00;65017.25;5053240;28;20270;-60
2023/07/08 06:01:31;;;;;;;9.48;7.40;;;;;;;19.54;100.00;65033.59;5053216;28;20200;-61
2023/07/08 06:03:59;;;;;;;14.25;7.63;;;;;;;19.76;100.00;65057.91;5053316;28;20217;-61
2023/07/08 06:06:25;;;;;;;10.27;7.20;;;;;;;19.64;100.00;65044.66;5053205;28;20194;-60
2023/07/08 06:08:50;;;;;;;10.82;8.50;;;;;;;19.84;100.00;65066.16;5052953;28;20222;-60
2023/07/08 06:11:16;;;;;;;9.23;7.63;;;;;;;19.75;100.00;65053.69;5053037;28;20205;-57
2023/07/08 06:13:42;;;;;;;8.60;7.70;;;;;;;19.75;100.00;65058.81;5053493;28;20224;-56
2023/07/08 06:16:07;;;;;;;9.90;7.47;;;;;;;19.98;100.00;65079.63;5035339;28;20193;-57
2023/07/08 06:18:33;;;;;;;10.38;8.02;;;;;;;19.99;100.00;65080.19;5052827;28;20212;-57
2023/07/08 06:20:59;;;;;;;8.13;6.78;;;;;;;20.17;100.00;65102.06;5034992;28;20269;-58
2023/07/08 06:23:25;;;;;;;10.88;6.90;;;;;;;20.13;100.00;65095.66;5052618;28;20629;-57
2023/07/08 06:25:51;;;;;;;9.75;7.57;;;;;;;20.24;100.00;65110.38;5052940;28;20227;-57
2023/07/08 06:28:17;;;;;;;8.23;7.40;;;;;;;20.17;100.00;65102.63;5052793;28;20217;-56
2023/07/08 06:30:43;;;;;;;9.70;7.40;;;;;;;20.42;100.00;65130.25;5052782;28;20201;-57
2023/07/08 06:33:09;;;;;;;8.98;7.63;;;;;;;20.25;100.00;65108.94;5052673;28;20245;-57
2023/07/08 06:35:34;;;;;;;10.10;7.47;;;;;;;20.09;100.00;65094.34;5052631;28;20221;-57
2023/07/08 06:38:00;;;;;;;8.02;7.05;;;;;;;20.09;100.00;65093.78;5071573;22;20386;-58
2023/07/08 06:40:25;;;;;;;9.18;6.43;;;;;;;20.03;100.00;65087.16;5052586;28;20189;-58
2023/07/08 06:42:50;;;;;;;9.55;6.82;;;;;;;20.31;100.00;65117.56;5052873;28;20557;-58
2023/07/08 06:45:16;;;;;;;7.90;7.05;;;;;;;20.49;100.00;65134.91;5052705;28;20276;-57
2023/07/08 06:47:42;;;;;;;10.27;6.97;;;;;;;20.38;99.70;65123.28;5053058;28;20217;-59
2023/07/08 06:50:08;;;;;;;7.97;7.05;;;;;;;20.42;100.00;65127.16;5052565;28;20181;-56
2023/07/08 06:52:35;;;;;;;7.78;6.45;;;;;;;20.40;100.00;65125.50;5052435;28;20667;-58
2023/07/08 06:55:07;;;;;;;8.90;6.72;;;;;;;20.32;98.73;65116.13;5052542;28;20189;-59
2023/07/08 06:57:34;;;;;;;11.63;6.05;;;;;;;20.16;98.83;65098.41;5052334;28;20217;-58
2023/07/08 06:59:59;;;;;;;6.75;6.15;;;;;;;20.03;99.44;65085.16;5052386;28;20193;-57
2023/07/08 07:02:26;;;;;;;9.05;6.63;;;;;;;20.41;97.71;65131.19;5052146;28;20620;-58
2023/07/08 07:04:52;;;;;;;10.70;6.82;;;;;;;20.56;96.50;65143.19;5052232;28;20204;-56
2023/07/08 07:07:17;;;;;;;12.48;6.53;;;;;;;20.50;95.29;65138.56;5051951;28;20201;-56
2023/07/08 07:09:43;;;;;;;11.85;6.65;;;;;;;20.59;93.80;65145.94;5052274;28;20189;-60
2023/07/08 07:12:08;;;;;;;8.02;6.63;;;;;;;20.75;93.52;65163.63;5052367;28;20216;-58
2023/07/08 07:14:34;;;;;;;10.60;7.57;;;;;;;20.75;94.14;65164.19;5052271;28;20177;-57
2023/07/08 07:17:00;;;;;;;10.35;7.28;;;;;;;20.76;94.03;65165.31;5052079;28;20198;-56
2023/07/08 07:19:25;;;;;;;11.20;6.78;;;;;;;20.81;93.53;65173.38;5051886;28;20656;-57
2023/07/08 07:21:51;;;;;;;7.55;6.30;;;;;;;20.87;91.65;65177.44;5051869;28;20293;-56
2023/07/08 07:24:17;;;;;;;8.00;6.72;;;;;;;20.82;91.43;65171.94;5052106;28;20299;-57
2023/07/08 07:26:43;;;;;;;11.10;6.40;;;;;;;20.84;92.06;65174.16;5051817;28;20216;-57
2023/07/08 07:29:08;;;;;;;7.13;6.13;;;;;;;21.02;92.04;65192.94;5051795;28;20212;-57
2023/07/08 07:31:34;;;;;;;11.10;6.32;;;;;;;21.26;92.35;65220.03;5051819;28;20211;-57
2023/07/08 07:34:00;;;;;;;8.73;6.32;;;;;;;21.20;90.43;65213.41;5051765;28;20221;-58
2023/07/08 07:36:27;;;;;;;6.93;6.20;;;;;;;21.14;89.12;65203.66;5049948;28;20216;-57
2023/07/08 07:38:52;;;;;;;6.55;5.95;;;;;;;21.34;89.95;65228.88;5051829;28;20208;-57
2023/07/08 07:41:17;;;;;;;9.32;7.07;;;;;;;21.55;90.42;65254.66;5051674;28;20194;-57
2023/07/08 07:43:43;;;;;;;10.02;6.53;;;;;;;21.33;87.53;65227.78;5051623;28;20190;-57
2023/07/08 07:46:10;;;;;;;9.27;6.20;;;;;;;21.35;88.58;65229.97;5051718;28;20225;-58
2023/07/08 07:48:36;;;;;;;11.32;7.13;;;;;;;21.49;88.19;65240.34;5051822;28;20213;-61
2023/07/08 07:51:02;;;;;;;11.00;6.82;;;;;;;21.49;87.11;65248.03;5033623;28;20753;-57
2023/07/08 07:53:27;;;;;;;8.48;6.40;;;;;;;21.41;86.14;65239.19;5051235;28;20259;-56
2023/07/08 07:55:58;;;;;;;7.75;6.03;;;;;;;21.34;84.82;65226.31;5051448;28;20285;-57
2023/07/08 07:58:23;;;;;;;6.90;6.30;;;;;;;21.25;84.96;65221.50;5051598;28;20217;-58
2023/07/08 08:00:48;;;;;;;5.40;4.90;;;;;;;21.26;84.77;65220.03;5051408;28;20196;-57
2023/07/08 08:03:16;;;;;;;8.45;6.13;;;;;;;21.30;86.21;65226.47;5051393;28;20209;-58
2023/07/08 08:05:42;;;;;;;6.93;6.22;;;;;;;21.40;86.43;65234.97;5051252;28;20293;-58
2023/07/08 08:08:08;;;;;;;7.50;6.30;;;;;;;21.47;85.36;65242.72;5051271;28;20205;-57
2023/07/08 08:10:35;;;;;;;8.25;6.75;;;;;;;21.73;86.28;65272.00;5051225;28;20193;-58
2023/07/08 08:13:00;;;;;;;8.35;6.60;;;;;;;22.04;86.01;65305.78;5050886;28;20213;-58
2023/07/08 08:15:26;;;;;;;9.10;6.22;;;;;;;21.85;85.78;65284.78;5051170;28;20578;-57
2023/07/08 08:17:52;;;;;;;7.97;5.82;;;;;;;21.93;83.22;65295.63;5051326;28;20227;-56
2023/07/08 08:20:19;;;;;;;6.82;5.95;;;;;;;21.80;83.21;65279.22;5033277;28;20566;-56
2023/07/08 08:22:45;;;;;;;6.28;5.68;;;;;;;21.80;83.26;65279.22;5051513;28;20217;-57
2023/07/08 08:25:11;;;;;;;9.07;6.07;;;;;;;22.00;84.53;65301.38;5051114;28;20263;-60
2023/07/08 08:27:37;;;;;;;9.73;6.28;;;;;;;21.94;82.61;65294.72;5051090;28;20304;-60
2023/07/08 08:30:05;;;;;;;9.70;6.15;;;;;;;22.04;82.66;65305.25;5051003;28;20185;-62
2023/07/08 08:32:30;;;;;;;8.85;6.10;;;;;;;22.34;82.27;65338.44;5050808;28;20297;-61
2023/07/08 08:34:56;;;;;;;10.02;6.47;;;;;;;22.22;81.24;65325.16;5051179;28;20276;-61
2023/07/08 08:37:22;;;;;;;7.47;6.03;;;;;;;22.33;82.63;65335.31;5051054;28;20679;-60
2023/07/08 08:39:47;;;;;;;9.02;6.57;;;;;;;22.43;81.95;65348.41;5050989;28;20189;-60
2023/07/08 08:42:39;;;;;;;6.70;6.00;;;;;;;22.72;80.45;65382.56;5050817;28;20288;-61
2023/07/08 08:45:07;;;;;;;10.18;7.18;;;;;;;22.90;79.29;65400.47;5040207;28;20748;-63
2023/07/08 08:47:42;;;;;;;7.05;6.35;;;;;;;22.45;79.23;65350.63;5049615;28;20216;-61
2023/07/08 08:50:32;;;;;;;7.13;6.07;;;;;;;22.22;79.04;65323.13;5050790;28;20205;-61
2023/07/08 08:53:01;;;;;;;15.05;6.40;;;;;;;22.53;80.56;65359.47;5050498;28;20237;-61
2023/07/08 08:55:27;;;;;;;7.25;6.20;;;;;;;22.63;77.62;65370.00;5050588;28;20202;-59
2023/07/08 08:58:00;;;;;;;8.10;6.43;;;;;;;22.84;77.67;65390.69;5033134;28;20267;-57
2023/07/08 09:00:34;;;;;;;7.07;6.38;;;;;;;22.97;77.77;65408.22;5050540;28;20737;-56
2023/07/08 09:03:09;;;;;;;7.93;6.15;;;;;;;23.35;76.71;65450.34;5050839;28;20206;-56
2023/07/08 09:05:34;;;;;;;6.50;5.88;;;;;;;23.34;76.23;65449.25;5050585;28;20242;-55
2023/07/08 09:08:15;;;;;;;6.07;5.43;;;;;;;23.30;73.70;65444.78;5050479;28;20209;-58
2023/07/08 09:10:46;;;;;;;6.15;5.55;;;;;;;23.13;76.70;65425.94;5050404;28;20197;-56
2023/07/08 09:13:37;;;;;;;7.40;6.15;;;;;;;23.06;77.01;65420.78;5050254;28;20263;-57
2023/07/08 09:16:25;;;;;;;8.23;6.05;;;;;;;22.73;78.22;65381.63;5050536;28;20190;-59
2023/07/08 09:19:28;;;;;;;11.13;6.05;;;;;;;22.60;78.29;65369.28;5050160;28;20210;-58
2023/07/08 09:21:59;;;;;;;8.23;6.28;;;;;;;22.81;80.33;65387.38;5045879;28;20225;-58
2023/07/08 09:24:32;;;;;;;8.73;6.28;;;;;;;22.87;77.76;65397.16;5050276;28;20568;-62
2023/07/08 09:27:00;;;;;;;8.18;6.00;;;;;;;22.53;76.60;65359.47;5050891;28;20584;-59
2023/07/08 09:29:26;;;;;;;7.72;5.43;;;;;;;22.46;78.94;65351.75;5049985;28;20213;-61
2023/07/08 09:31:52;;;;;;;6.95;6.25;;;;;;;22.65;78.94;65372.78;5050617;28;20185;-62
2023/07/08 09:34:22;;;;;;;7.97;6.78;;;;;;;22.66;80.04;65373.91;5050238;28;20320;-62
2023/07/08 09:36:49;;;;;;;7.05;6.40;;;;;;;23.08;82.25;65420.41;5051018;28;20231;-59
2023/07/08 09:39:17;;;;;;;6.75;6.05;;;;;;;22.89;76.69;65398.81;5050230;28;20305;-59
2023/07/08 09:41:46;;;;;;;7.65;6.05;;;;;;;22.89;78.53;65396.78;5050086;28;20211;-59
2023/07/08 09:44:26;;;;;;;8.73;5.93;;;;;;;22.80;76.06;65389.41;5049979;28;20221;-58
2023/07/08 09:46:53;;;;;;;5.82;5.30;;;;;;;22.95;75.72;65406.00;5050234;28;20205;-60
2023/07/08 09:49:32;;;;;;;8.77;5.38;;;;;;;22.82;73.46;65389.06;5050058;28;20255;-61
2023/07/08 09:51:58;;;;;;;6.75;5.53;;;;;;;22.68;75.64;65373.53;5050417;28;20294;-61
2023/07/08 09:54:24;;;;;;;6.47;5.47;;;;;;;22.85;75.45;65397.50;5050354;28;20241;-62
2023/07/08 09:57:16;;;;;;;6.35;5.28;;;;;;;23.09;75.98;65421.50;5050233;28;20221;-61
2023/07/08 09:59:48;;;;;;;5.60;5.10;;;;;;;23.06;73.21;65417.63;5053155;28;20210;-60
2023/07/08 10:02:27;;;;;;;7.85;4.90;;;;;;;23.05;72.82;65416.53;5074210;22;20217;-60
2023/07/08 10:04:55;;;;;;;11.80;6.40;;;;;;;23.25;72.88;65434.09;5033552;28;20259;-58
2023/07/08 10:07:21;;;;;;;6.03;4.97;;;;;;;23.19;72.65;65432.06;5033543;28;20637;-58
2023/07/08 10:09:55;;;;;;;5.78;5.15;;;;;;;23.09;70.56;65424.09;5033541;28;20194;-57
2023/07/08 10:12:22;;;;;;;8.30;5.38;;;;;;;23.16;74.38;65429.28;5048860;28;20258;-57
2023/07/08 10:14:52;;;;;;;5.60;5.10;;;;;;;23.30;71.46;65444.22;5033576;28;20286;-62
2023/07/08 10:17:20;;;;;;;7.65;5.53;;;;;;;23.42;72.85;65457.53;5033231;28;20705;-61
2023/07/08 10:19:46;;;;;;;5.97;4.68;;;;;;;23.56;71.29;65472.50;5033673;28;20218;-61
2023/07/08 10:22:20;;;;;;;6.88;5.13;;;;;;;23.33;70.10;65448.13;5033203;28;20719;-61
2023/07/08 10:25:11;;;;;;;5.28;4.78;;;;;;;23.25;70.91;65439.22;5033072;28;20643;-60
2023/07/08 10:27:51;;;;;;;5.85;4.95;;;;;;;23.43;70.50;65458.66;5033708;28;20218;-59
2023/07/08 10:30:25;;;;;;;5.70;5.10;;;;;;;23.94;71.97;65517.19;5033372;28;20240;-59
2023/07/08 10:32:54;;;;;;;6.13;5.10;;;;;;;23.95;68.93;65516.28;5033227;28;20304;-59
2023/07/08 10:35:35;;;;;;;6.00;5.32;;;;;;;23.88;68.96;65508.53;5033324;28;20197;-62
2023/07/08 10:38:35;;;;;;;6.10;5.40;;;;;;;23.82;67.80;65501.88;5033168;28;20218;-62
2023/07/08 10:41:10;;;;;;;5.90;4.85;;;;;;;24.26;68.79;65547.53;5033114;28;20216;-61
2023/07/08 10:43:54;;;;;;;5.68;4.85;;;;;;;24.47;66.86;65573.41;5032912;28;20231;-60
2023/07/08 10:46:33;;;;;;;4.93;4.45;;;;;;;24.46;65.41;65572.28;5032962;28;20285;-62
2023/07/08 10:49:23;;;;;;;7.40;5.10;;;;;;;24.33;64.61;65552.16;5033045;28;20221;-58
2023/07/08 10:52:10;;;;;;;5.35;4.85;;;;;;;24.35;65.30;65557.53;5032782;28;20198;-57
2023/07/08 10:54:44;;;;;;;6.10;5.45;;;;;;;24.34;64.73;65558.97;5032833;28;20202;-57
2023/07/08 10:57:16;;;;;;;4.35;3.95;;;;;;;24.37;65.71;65559.75;5033090;28;20207;-57
2023/07/08 10:59:42;;;;;;;5.32;4.78;;;;;;;24.54;62.08;65581.19;5032477;28;20220;-58
2023/07/08 11:02:52;;;;;;;4.28;3.88;;;;;;;24.62;60.69;65589.50;5032496;28;20202;-56
2023/07/08 11:05:43;;;;;;;5.63;5.13;;;;;;;24.34;63.95;65556.41;5032289;28;20290;-57
2023/07/08 11:08:21;;;;;;;5.72;5.05;;;;;;;24.21;65.01;65544.56;5031744;28;20238;-61
2023/07/08 11:10:58;;;;;;;4.82;4.25;;;;;;;24.21;64.07;65541.44;5031717;28;20201;-61
2023/07/08 11:13:27;;;;;;;5.47;4.65;;;;;;;24.37;66.09;65562.31;5032480;28;20221;-61
2023/07/08 11:16:05;;;;;;;6.25;5.15;;;;;;;25.10;68.56;65637.03;5032407;28;20195;-61
2023/07/08 11:18:37;;;;;;;4.57;4.05;;;;;;;25.17;61.44;65649.97;5032503;28;20304;-62
2023/07/08 11:21:10;;;;;;;4.82;4.40;;;;;;;24.54;60.71;65581.19;5047844;28;20307;-57
2023/07/08 11:23:40;;;;;;;5.10;4.35;;;;;;;24.87;61.18;65617.78;5032298;28;20225;-63
2023/07/08 11:26:34;;;;;;;5.93;4.65;;;;;;;24.83;61.08;65608.19;5032650;28;20261;-63
2023/07/08 11:29:01;;;;;;;5.78;4.25;;;;;;;25.16;60.85;65649.44;5032289;28;20233;-62